sensor_id;sensor_type;location;lat;lon;timestamp;P1;durP1;ratioP1;P2;durP2;ratioP2
63012;SDS011;62113;45.624;11.700;2023-04-24T00:00:54;20.80;;;12.20;;
63012;SDS011;62113;45.624;11.700;2023-04-24T00:03:22;21.98;;;11.30;;
63012;SDS011;62113;45.624;11.700;2023-04-24T00:05:48;17.42;;;10.73;;
63012;SDS011;62113;45.624;11.700;2023-04-24T00:08:13;13.00;;;10.23;;
63012;SDS011;62113;45.624;11.700;2023-04-24T00:10:39;14.93;;;10.80;;
63012;SDS011;62113;45.624;11.700;2023-04-24T00:13:05;16.38;;;10.57;;
63012;SDS011;62113;45.624;11.700;2023-04-24T00:15:31;16.83;;;10.50;;
63012;SDS011;62113;45.624;11.700;2023-04-24T00:17:57;15.73;;;9.73;;
63012;SDS011;62113;45.624;11.700;2023-04-24T00:20:22;17.90;;;10.63;;
63012;SDS011;62113;45.624;11.700;2023-04-24T00:22:48;14.60;;;10.87;;
63012;SDS011;62113;45.624;11.700;2023-04-24T00:25:13;18.90;;;10.13;;
63012;SDS011;62113;45.624;11.700;2023-04-24T00:27:39;14.13;;;10.17;;
63012;SDS011;62113;45.624;11.700;2023-04-24T00:30:05;13.13;;;9.03;;
63012;SDS011;62113;45.624;11.700;2023-04-24T00:32:31;15.05;;;9.63;;
63012;SDS011;62113;45.624;11.700;2023-04-24T00:34:57;14.37;;;9.63;;
63012;SDS011;62113;45.624;11.700;2023-04-24T00:37:22;14.47;;;9.63;;
63012;SDS011;62113;45.624;11.700;2023-04-24T00:39:48;15.00;;;9.73;;
63012;SDS011;62113;45.624;11.700;2023-04-24T00:42:13;16.93;;;9.77;;
63012;SDS011;62113;45.624;11.700;2023-04-24T00:44:39;15.95;;;9.90;;
63012;SDS011;62113;45.624;11.700;2023-04-24T00:47:05;13.57;;;8.50;;
63012;SDS011;62113;45.624;11.700;2023-04-24T00:49:32;14.25;;;9.18;;
63012;SDS011;62113;45.624;11.700;2023-04-24T00:51:57;16.83;;;9.37;;
63012;SDS011;62113;45.624;11.700;2023-04-24T00:54:24;14.98;;;9.95;;
63012;SDS011;62113;45.624;11.700;2023-04-24T00:56:50;13.57;;;9.50;;
63012;SDS011;62113;45.624;11.700;2023-04-24T00:59:16;17.02;;;9.55;;
63012;SDS011;62113;45.624;11.700;2023-04-24T01:01:43;14.70;;;10.20;;
63012;SDS011;62113;45.624;11.700;2023-04-24T01:04:09;17.38;;;9.85;;
63012;SDS011;62113;45.624;11.700;2023-04-24T01:06:38;14.57;;;9.48;;
63012;SDS011;62113;45.624;11.700;2023-04-24T01:09:04;14.02;;;9.27;;
63012;SDS011;62113;45.624;11.700;2023-04-24T01:11:30;12.33;;;9.53;;
63012;SDS011;62113;45.624;11.700;2023-04-24T01:13:56;15.23;;;9.20;;
63012;SDS011;62113;45.624;11.700;2023-04-24T01:16:22;12.47;;;9.00;;
63012;SDS011;62113;45.624;11.700;2023-04-24T01:18:48;14.83;;;9.73;;
63012;SDS011;62113;45.624;11.700;2023-04-24T01:21:14;13.30;;;8.90;;
63012;SDS011;62113;45.624;11.700;2023-04-24T01:23:46;12.05;;;8.93;;
63012;SDS011;62113;45.624;11.700;2023-04-24T01:26:13;19.60;;;9.10;;
63012;SDS011;62113;45.624;11.700;2023-04-24T01:28:40;12.77;;;9.02;;
63012;SDS011;62113;45.624;11.700;2023-04-24T01:31:06;14.53;;;9.17;;
63012;SDS011;62113;45.624;11.700;2023-04-24T01:33:32;11.73;;;8.80;;
63012;SDS011;62113;45.624;11.700;2023-04-24T01:35:58;13.13;;;8.57;;
63012;SDS011;62113;45.624;11.700;2023-04-24T01:38:24;9.35;;;7.30;;
63012;SDS011;62113;45.624;11.700;2023-04-24T01:40:50;13.00;;;8.43;;
63012;SDS011;62113;45.624;11.700;2023-04-24T01:43:16;10.32;;;8.10;;
63012;SDS011;62113;45.624;11.700;2023-04-24T01:45:42;10.77;;;8.25;;
63012;SDS011;62113;45.624;11.700;2023-04-24T01:48:08;12.47;;;7.60;;
63012;SDS011;62113;45.624;11.700;2023-04-24T01:50:34;10.60;;;7.30;;
63012;SDS011;62113;45.624;11.700;2023-04-24T01:53:00;8.63;;;7.63;;
63012;SDS011;62113;45.624;11.700;2023-04-24T01:55:25;11.00;;;7.53;;
63012;SDS011;62113;45.624;11.700;2023-04-24T01:57:52;11.43;;;7.28;;
63012;SDS011;62113;45.624;11.700;2023-04-24T02:00:20;12.68;;;7.32;;
63012;SDS011;62113;45.624;11.700;2023-04-24T02:02:46;10.60;;;7.33;;
63012;SDS011;62113;45.624;11.700;2023-04-24T02:05:11;14.30;;;7.27;;
63012;SDS011;62113;45.624;11.700;2023-04-24T02:07:37;13.27;;;7.87;;
63012;SDS011;62113;45.624;11.700;2023-04-24T02:10:03;14.27;;;6.97;;
63012;SDS011;62113;45.624;11.700;2023-04-24T02:12:29;9.63;;;6.87;;
63012;SDS011;62113;45.624;11.700;2023-04-24T02:14:55;12.70;;;6.20;;
63012;SDS011;62113;45.624;11.700;2023-04-24T02:17:20;11.47;;;6.43;;
63012;SDS011;62113;45.624;11.700;2023-04-24T02:19:46;7.07;;;6.37;;
63012;SDS011;62113;45.624;11.700;2023-04-24T02:22:12;12.33;;;7.40;;
63012;SDS011;62113;45.624;11.700;2023-04-24T02:24:37;9.80;;;6.27;;
63012;SDS011;62113;45.624;11.700;2023-04-24T02:27:03;8.00;;;6.07;;
63012;SDS011;62113;45.624;11.700;2023-04-24T02:29:29;10.00;;;6.65;;
63012;SDS011;62113;45.624;11.700;2023-04-24T02:31:55;8.40;;;6.45;;
63012;SDS011;62113;45.624;11.700;2023-04-24T02:34:21;10.50;;;6.23;;
63012;SDS011;62113;45.624;11.700;2023-04-24T02:36:48;11.82;;;7.35;;
63012;SDS011;62113;45.624;11.700;2023-04-24T02:39:13;8.57;;;6.00;;
63012;SDS011;62113;45.624;11.700;2023-04-24T02:41:41;6.93;;;6.22;;
63012;SDS011;62113;45.624;11.700;2023-04-24T02:44:07;7.28;;;6.30;;
63012;SDS011;62113;45.624;11.700;2023-04-24T02:46:33;7.70;;;5.50;;
63012;SDS011;62113;45.624;11.700;2023-04-24T02:48:58;8.97;;;6.43;;
63012;SDS011;62113;45.624;11.700;2023-04-24T02:51:24;8.80;;;6.17;;
63012;SDS011;62113;45.624;11.700;2023-04-24T02:53:50;8.40;;;6.40;;
63012;SDS011;62113;45.624;11.700;2023-04-24T02:56:15;9.17;;;6.03;;
63012;SDS011;62113;45.624;11.700;2023-04-24T02:58:41;8.70;;;6.27;;
63012;SDS011;62113;45.624;11.700;2023-04-24T03:01:07;7.78;;;6.63;;
63012;SDS011;62113;45.624;11.700;2023-04-24T03:03:34;10.52;;;6.05;;
63012;SDS011;62113;45.624;11.700;2023-04-24T03:06:01;7.83;;;5.77;;
63012;SDS011;62113;45.624;11.700;2023-04-24T03:08:26;12.53;;;6.70;;
63012;SDS011;62113;45.624;11.700;2023-04-24T03:10:52;8.33;;;6.13;;
63012;SDS011;62113;45.624;11.700;2023-04-24T03:13:18;7.13;;;5.70;;
63012;SDS011;62113;45.624;11.700;2023-04-24T03:15:43;7.87;;;6.03;;
63012;SDS011;62113;45.624;11.700;2023-04-24T03:18:10;8.80;;;6.38;;
63012;SDS011;62113;45.624;11.700;2023-04-24T03:20:35;8.03;;;5.80;;
63012;SDS011;62113;45.624;11.700;2023-04-24T03:25:28;9.97;;;5.87;;
63012;SDS011;62113;45.624;11.700;2023-04-24T03:27:53;11.33;;;6.40;;
63012;SDS011;62113;45.624;11.700;2023-04-24T03:30:19;9.45;;;5.43;;
63012;SDS011;62113;45.624;11.700;2023-04-24T03:32:45;7.17;;;6.17;;
63012;SDS011;62113;45.624;11.700;2023-04-24T03:35:11;6.13;;;5.53;;
63012;SDS011;62113;45.624;11.700;2023-04-24T03:37:36;8.13;;;6.13;;
63012;SDS011;62113;45.624;11.700;2023-04-24T03:40:02;9.47;;;5.23;;
63012;SDS011;62113;45.624;11.700;2023-04-24T03:42:28;7.63;;;5.50;;
63012;SDS011;62113;45.624;11.700;2023-04-24T03:44:54;7.20;;;5.90;;
63012;SDS011;62113;45.624;11.700;2023-04-24T03:47:19;13.33;;;5.50;;
63012;SDS011;62113;45.624;11.700;2023-04-24T03:49:45;6.50;;;5.63;;
63012;SDS011;62113;45.624;11.700;2023-04-24T03:52:10;12.27;;;6.10;;
63012;SDS011;62113;45.624;11.700;2023-04-24T03:54:36;8.03;;;5.70;;
63012;SDS011;62113;45.624;11.700;2023-04-24T03:57:01;8.93;;;5.40;;
63012;SDS011;62113;45.624;11.700;2023-04-24T03:59:28;7.32;;;5.53;;
63012;SDS011;62113;45.624;11.700;2023-04-24T04:01:54;11.73;;;5.50;;
63012;SDS011;62113;45.624;11.700;2023-04-24T04:04:19;9.27;;;5.67;;
63012;SDS011;62113;45.624;11.700;2023-04-24T04:06:45;9.30;;;6.00;;
63012;SDS011;62113;45.624;11.700;2023-04-24T04:09:11;10.30;;;5.80;;
63012;SDS011;62113;45.624;11.700;2023-04-24T04:11:37;10.30;;;6.63;;
63012;SDS011;62113;45.624;11.700;2023-04-24T04:14:02;6.97;;;5.53;;
63012;SDS011;62113;45.624;11.700;2023-04-24T04:16:28;8.77;;;5.70;;
63012;SDS011;62113;45.624;11.700;2023-04-24T04:18:54;8.07;;;6.10;;
63012;SDS011;62113;45.624;11.700;2023-04-24T04:21:20;7.60;;;6.20;;
63012;SDS011;62113;45.624;11.700;2023-04-24T04:23:46;12.23;;;6.80;;
63012;SDS011;62113;45.624;11.700;2023-04-24T04:26:11;8.30;;;6.20;;
63012;SDS011;62113;45.624;11.700;2023-04-24T04:28:37;11.40;;;6.63;;
63012;SDS011;62113;45.624;11.700;2023-04-24T04:31:04;10.05;;;6.57;;
63012;SDS011;62113;45.624;11.700;2023-04-24T04:33:30;9.23;;;7.25;;
63012;SDS011;62113;45.624;11.700;2023-04-24T04:35:56;8.20;;;6.93;;
63012;SDS011;62113;45.624;11.700;2023-04-24T04:38:23;12.18;;;7.82;;
63012;SDS011;62113;45.624;11.700;2023-04-24T04:40:49;11.97;;;7.77;;
63012;SDS011;62113;45.624;11.700;2023-04-24T04:43:15;11.27;;;8.30;;
63012;SDS011;62113;45.624;11.700;2023-04-24T04:45:41;10.23;;;7.83;;
63012;SDS011;62113;45.624;11.700;2023-04-24T04:48:08;13.15;;;8.00;;
63012;SDS011;62113;45.624;11.700;2023-04-24T04:50:37;14.75;;;7.25;;
63012;SDS011;62113;45.624;11.700;2023-04-24T04:53:02;16.83;;;7.80;;
63012;SDS011;62113;45.624;11.700;2023-04-24T04:55:28;10.07;;;7.80;;
63012;SDS011;62113;45.624;11.700;2023-04-24T04:57:54;10.10;;;7.27;;
63012;SDS011;62113;45.624;11.700;2023-04-24T05:00:21;14.00;;;8.45;;
63012;SDS011;62113;45.624;11.700;2023-04-24T05:02:49;9.73;;;7.97;;
63012;SDS011;62113;45.624;11.700;2023-04-24T05:05:14;10.07;;;8.00;;
63012;SDS011;62113;45.624;11.700;2023-04-24T05:07:42;8.95;;;7.38;;
63012;SDS011;62113;45.624;11.700;2023-04-24T05:10:07;9.20;;;7.47;;
63012;SDS011;62113;45.624;11.700;2023-04-24T05:12:33;14.68;;;7.90;;
63012;SDS011;62113;45.624;11.700;2023-04-24T05:14:59;10.10;;;7.57;;
63012;SDS011;62113;45.624;11.700;2023-04-24T05:17:24;13.47;;;7.97;;
63012;SDS011;62113;45.624;11.700;2023-04-24T05:19:50;9.90;;;7.80;;
63012;SDS011;62113;45.624;11.700;2023-04-24T05:22:16;13.20;;;8.37;;
63012;SDS011;62113;45.624;11.700;2023-04-24T05:24:43;14.52;;;8.60;;
63012;SDS011;62113;45.624;11.700;2023-04-24T05:27:09;11.05;;;8.30;;
63012;SDS011;62113;45.624;11.700;2023-04-24T05:29:35;10.23;;;8.17;;
63012;SDS011;62113;45.624;11.700;2023-04-24T05:32:01;12.53;;;8.63;;
63012;SDS011;62113;45.624;11.700;2023-04-24T05:34:26;16.37;;;7.90;;
63012;SDS011;62113;45.624;11.700;2023-04-24T05:36:52;9.53;;;6.67;;
63012;SDS011;62113;45.624;11.700;2023-04-24T05:39:18;12.83;;;7.90;;
63012;SDS011;62113;45.624;11.700;2023-04-24T05:41:44;9.88;;;7.68;;
63012;SDS011;62113;45.624;11.700;2023-04-24T05:44:10;14.67;;;7.37;;
63012;SDS011;62113;45.624;11.700;2023-04-24T05:46:35;12.80;;;7.50;;
63012;SDS011;62113;45.624;11.700;2023-04-24T05:49:01;15.37;;;7.60;;
63012;SDS011;62113;45.624;11.700;2023-04-24T05:51:27;11.23;;;7.53;;
63012;SDS011;62113;45.624;11.700;2023-04-24T05:53:53;12.43;;;8.30;;
63012;SDS011;62113;45.624;11.700;2023-04-24T05:56:19;15.20;;;9.88;;
63012;SDS011;62113;45.624;11.700;2023-04-24T05:58:45;12.65;;;9.20;;
63012;SDS011;62113;45.624;11.700;2023-04-24T06:01:11;12.03;;;9.17;;
63012;SDS011;62113;45.624;11.700;2023-04-24T06:03:39;12.85;;;9.73;;
63012;SDS011;62113;45.624;11.700;2023-04-24T06:06:06;10.75;;;7.93;;
63012;SDS011;62113;45.624;11.700;2023-04-24T06:08:32;11.73;;;6.00;;
63012;SDS011;62113;45.624;11.700;2023-04-24T06:10:58;6.30;;;5.20;;
63012;SDS011;62113;45.624;11.700;2023-04-24T06:13:24;5.23;;;3.97;;
63012;SDS011;62113;45.624;11.700;2023-04-24T06:15:50;5.93;;;4.03;;
63012;SDS011;62113;45.624;11.700;2023-04-24T06:18:16;8.07;;;4.80;;
63012;SDS011;62113;45.624;11.700;2023-04-24T06:20:41;9.80;;;5.77;;
63012;SDS011;62113;45.624;11.700;2023-04-24T06:23:07;7.60;;;5.50;;
63012;SDS011;62113;45.624;11.700;2023-04-24T06:25:33;11.73;;;7.23;;
63012;SDS011;62113;45.624;11.700;2023-04-24T06:27:58;9.83;;;6.87;;
63012;SDS011;62113;45.624;11.700;2023-04-24T06:30:24;9.77;;;7.00;;
63012;SDS011;62113;45.624;11.700;2023-04-24T06:32:50;9.07;;;7.23;;
63012;SDS011;62113;45.624;11.700;2023-04-24T06:35:16;8.27;;;6.73;;
63012;SDS011;62113;45.624;11.700;2023-04-24T06:37:42;7.33;;;6.43;;
63012;SDS011;62113;45.624;11.700;2023-04-24T06:40:08;10.80;;;6.90;;
63012;SDS011;62113;45.624;11.700;2023-04-24T06:42:34;7.53;;;6.28;;
63012;SDS011;62113;45.624;11.700;2023-04-24T06:45:00;7.15;;;6.05;;
63012;SDS011;62113;45.624;11.700;2023-04-24T06:47:26;6.90;;;5.37;;
63012;SDS011;62113;45.624;11.700;2023-04-24T06:49:52;6.67;;;4.90;;
63012;SDS011;62113;45.624;11.700;2023-04-24T06:52:18;6.25;;;4.40;;
63012;SDS011;62113;45.624;11.700;2023-04-24T06:54:44;6.60;;;4.32;;
63012;SDS011;62113;45.624;11.700;2023-04-24T06:57:10;6.43;;;4.10;;
63012;SDS011;62113;45.624;11.700;2023-04-24T06:59:36;6.53;;;4.27;;
63012;SDS011;62113;45.624;11.700;2023-04-24T07:02:02;11.93;;;7.97;;
63012;SDS011;62113;45.624;11.700;2023-04-24T07:04:28;4.60;;;3.70;;
63012;SDS011;62113;45.624;11.700;2023-04-24T07:06:54;3.40;;;3.05;;
63012;SDS011;62113;45.624;11.700;2023-04-24T07:09:21;5.70;;;3.42;;
63012;SDS011;62113;45.624;11.700;2023-04-24T07:11:47;5.50;;;3.75;;
63012;SDS011;62113;45.624;11.700;2023-04-24T07:14:13;4.73;;;3.73;;
63012;SDS011;62113;45.624;11.700;2023-04-24T07:16:39;6.07;;;4.37;;
63012;SDS011;62113;45.624;11.700;2023-04-24T07:19:04;4.67;;;3.63;;
63012;SDS011;62113;45.624;11.700;2023-04-24T07:21:30;3.87;;;3.57;;
63012;SDS011;62113;45.624;11.700;2023-04-24T07:23:57;4.85;;;3.40;;
63012;SDS011;62113;45.624;11.700;2023-04-24T07:26:23;6.55;;;4.80;;
63012;SDS011;62113;45.624;11.700;2023-04-24T07:28:48;5.17;;;3.70;;
63012;SDS011;62113;45.624;11.700;2023-04-24T07:31:14;6.17;;;3.80;;
63012;SDS011;62113;45.624;11.700;2023-04-24T07:33:40;4.30;;;3.10;;
63012;SDS011;62113;45.624;11.700;2023-04-24T07:36:06;3.77;;;3.00;;
63012;SDS011;62113;45.624;11.700;2023-04-24T07:38:31;4.10;;;3.07;;
63012;SDS011;62113;45.624;11.700;2023-04-24T07:40:57;1.77;;;1.67;;
63012;SDS011;62113;45.624;11.700;2023-04-24T07:43:23;1.30;;;1.20;;
63012;SDS011;62113;45.624;11.700;2023-04-24T07:45:49;1.93;;;1.33;;
63012;SDS011;62113;45.624;11.700;2023-04-24T07:48:15;1.85;;;0.90;;
63012;SDS011;62113;45.624;11.700;2023-04-24T07:53:08;2.38;;;1.83;;
63012;SDS011;62113;45.624;11.700;2023-04-24T07:55:34;2.60;;;2.07;;
63012;SDS011;62113;45.624;11.700;2023-04-24T07:57:59;2.30;;;2.20;;
63012;SDS011;62113;45.624;11.700;2023-04-24T08:00:25;3.50;;;1.93;;
63012;SDS011;62113;45.624;11.700;2023-04-24T08:02:51;1.63;;;1.50;;
63012;SDS011;62113;45.624;11.700;2023-04-24T08:05:16;1.63;;;1.43;;
63012;SDS011;62113;45.624;11.700;2023-04-24T08:07:42;1.17;;;1.17;;
63012;SDS011;62113;45.624;11.700;2023-04-24T08:10:09;1.07;;;0.97;;
63012;SDS011;62113;45.624;11.700;2023-04-24T08:12:36;1.13;;;1.13;;
63012;SDS011;62113;45.624;11.700;2023-04-24T08:15:02;1.38;;;1.15;;
63012;SDS011;62113;45.624;11.700;2023-04-24T08:17:28;3.58;;;1.23;;
63012;SDS011;62113;45.624;11.700;2023-04-24T08:19:54;1.30;;;1.30;;
63012;SDS011;62113;45.624;11.700;2023-04-24T08:22:26;1.00;;;1.00;;
63012;SDS011;62113;45.624;11.700;2023-04-24T08:24:52;5.10;;;1.60;;
63012;SDS011;62113;45.624;11.700;2023-04-24T08:27:18;1.20;;;1.10;;
63012;SDS011;62113;45.624;11.700;2023-04-24T08:29:43;1.20;;;1.20;;
63012;SDS011;62113;45.624;11.700;2023-04-24T08:32:09;1.73;;;1.57;;
63012;SDS011;62113;45.624;11.700;2023-04-24T08:34:34;2.80;;;2.10;;
63012;SDS011;62113;45.624;11.700;2023-04-24T08:37:00;1.40;;;1.40;;
63012;SDS011;62113;45.624;11.700;2023-04-24T08:39:26;1.80;;;1.70;;
63012;SDS011;62113;45.624;11.700;2023-04-24T08:41:52;2.97;;;1.80;;
63012;SDS011;62113;45.624;11.700;2023-04-24T08:44:18;2.38;;;1.88;;
63012;SDS011;62113;45.624;11.700;2023-04-24T08:49:13;2.17;;;1.60;;
63012;SDS011;62113;45.624;11.700;2023-04-24T08:51:41;1.60;;;1.50;;
63012;SDS011;62113;45.624;11.700;2023-04-24T08:54:07;1.60;;;1.50;;
63012;SDS011;62113;45.624;11.700;2023-04-24T08:56:33;2.67;;;2.00;;
63012;SDS011;62113;45.624;11.700;2023-04-24T08:59:02;2.67;;;1.50;;
63012;SDS011;62113;45.624;11.700;2023-04-24T09:03:56;1.70;;;1.60;;
63012;SDS011;62113;45.624;11.700;2023-04-24T09:06:22;1.23;;;1.23;;
63012;SDS011;62113;45.624;11.700;2023-04-24T09:08:50;2.20;;;1.40;;
63012;SDS011;62113;45.624;11.700;2023-04-24T09:11:17;1.95;;;1.45;;
63012;SDS011;62113;45.624;11.700;2023-04-24T09:13:43;1.60;;;1.10;;
63012;SDS011;62113;45.624;11.700;2023-04-24T09:16:10;3.10;;;1.27;;
63012;SDS011;62113;45.624;11.700;2023-04-24T09:18:36;1.30;;;1.20;;
63012;SDS011;62113;45.624;11.700;2023-04-24T09:21:08;1.30;;;1.20;;
63012;SDS011;62113;45.624;11.700;2023-04-24T09:23:35;3.50;;;1.27;;
63012;SDS011;62113;45.624;11.700;2023-04-24T09:26:01;1.13;;;1.13;;
63012;SDS011;62113;45.624;11.700;2023-04-24T09:28:35;1.00;;;1.00;;
63012;SDS011;62113;45.624;11.700;2023-04-24T09:31:09;0.60;;;0.60;;
63012;SDS011;62113;45.624;11.700;2023-04-24T09:33:40;0.93;;;0.93;;
63012;SDS011;62113;45.624;11.700;2023-04-24T09:36:26;1.77;;;0.98;;
63012;SDS011;62113;45.624;11.700;2023-04-24T09:39:01;0.70;;;0.70;;
63012;SDS011;62113;45.624;11.700;2023-04-24T09:41:27;1.17;;;1.08;;
63012;SDS011;62113;45.624;11.700;2023-04-24T09:43:56;0.70;;;0.70;;
63012;SDS011;62113;45.624;11.700;2023-04-24T09:46:35;0.80;;;0.80;;
63012;SDS011;62113;45.624;11.700;2023-04-24T09:49:07;3.50;;;0.80;;
63012;SDS011;62113;45.624;11.700;2023-04-24T09:51:35;12.43;;;8.93;;
63012;SDS011;62113;45.624;11.700;2023-04-24T09:59:03;1.10;;;1.10;;
63012;SDS011;62113;45.624;11.700;2023-04-24T10:01:32;0.95;;;0.90;;
63012;SDS011;62113;45.624;11.700;2023-04-24T10:03:59;0.75;;;0.70;;
63012;SDS011;62113;45.624;11.700;2023-04-24T10:06:33;0.77;;;0.70;;
63012;SDS011;62113;45.624;11.700;2023-04-24T10:08:59;0.63;;;0.63;;
63012;SDS011;62113;45.624;11.700;2023-04-24T10:11:28;1.33;;;1.23;;
63012;SDS011;62113;45.624;11.700;2023-04-24T10:13:55;1.60;;;1.50;;
63012;SDS011;62113;45.624;11.700;2023-04-24T10:18:48;0.90;;;0.90;;
63012;SDS011;62113;45.624;11.700;2023-04-24T10:21:14;0.77;;;0.77;;
63012;SDS011;62113;45.624;11.700;2023-04-24T10:23:41;1.48;;;1.35;;
63012;SDS011;62113;45.624;11.700;2023-04-24T10:26:11;0.50;;;0.50;;
63012;SDS011;62113;45.624;11.700;2023-04-24T10:28:43;1.42;;;0.80;;
63012;SDS011;62113;45.624;11.700;2023-04-24T10:31:10;0.70;;;0.50;;
63012;SDS011;62113;45.624;11.700;2023-04-24T10:33:38;0.90;;;0.75;;
63012;SDS011;62113;45.624;11.700;2023-04-24T10:36:11;0.63;;;0.43;;
63012;SDS011;62113;45.624;11.700;2023-04-24T10:38:39;2.85;;;2.30;;
63012;SDS011;62113;45.624;11.700;2023-04-24T10:41:07;0.47;;;0.47;;
63012;SDS011;62113;45.624;11.700;2023-04-24T10:43:35;0.80;;;0.80;;
63012;SDS011;62113;45.624;11.700;2023-04-24T10:46:04;0.60;;;0.60;;
63012;SDS011;62113;45.624;11.700;2023-04-24T10:48:31;0.65;;;0.60;;
63012;SDS011;62113;45.624;11.700;2023-04-24T10:50:57;1.42;;;1.33;;
63012;SDS011;62113;45.624;11.700;2023-04-24T10:53:24;0.80;;;0.68;;
63012;SDS011;62113;45.624;11.700;2023-04-24T10:56:04;0.55;;;0.55;;
63012;SDS011;62113;45.624;11.700;2023-04-24T10:58:42;2.47;;;0.60;;
63012;SDS011;62113;45.624;11.700;2023-04-24T11:01:22;1.05;;;0.82;;
63012;SDS011;62113;45.624;11.700;2023-04-24T11:03:59;0.73;;;0.73;;
63012;SDS011;62113;45.624;11.700;2023-04-24T11:06:33;0.98;;;0.98;;
63012;SDS011;62113;45.624;11.700;2023-04-24T11:11:32;0.80;;;0.80;;
63012;SDS011;62113;45.624;11.700;2023-04-24T11:16:28;0.83;;;0.83;;
63012;SDS011;62113;45.624;11.700;2023-04-24T11:24:26;1.20;;;1.20;;
63012;SDS011;62113;45.624;11.700;2023-04-24T11:27:13;2.55;;;1.60;;
63012;SDS011;62113;45.624;11.700;2023-04-24T11:35:00;1.17;;;0.93;;
63012;SDS011;62113;45.624;11.700;2023-04-24T11:37:40;0.80;;;0.80;;
63012;SDS011;62113;45.624;11.700;2023-04-24T11:40:18;4.43;;;1.02;;
63012;SDS011;62113;45.624;11.700;2023-04-24T11:42:46;1.00;;;1.00;;
63012;SDS011;62113;45.624;11.700;2023-04-24T11:45:16;1.08;;;1.02;;
63012;SDS011;62113;45.624;11.700;2023-04-24T11:47:44;0.73;;;0.73;;
63012;SDS011;62113;45.624;11.700;2023-04-24T11:50:13;0.70;;;0.70;;
63012;SDS011;62113;45.624;11.700;2023-04-24T11:52:41;2.83;;;0.80;;
63012;SDS011;62113;45.624;11.700;2023-04-24T11:57:42;1.17;;;1.10;;
63012;SDS011;62113;45.624;11.700;2023-04-24T12:00:14;1.50;;;0.85;;
63012;SDS011;62113;45.624;11.700;2023-04-24T12:02:41;0.93;;;0.90;;
63012;SDS011;62113;45.624;11.700;2023-04-24T12:05:07;1.17;;;1.07;;
63012;SDS011;62113;45.624;11.700;2023-04-24T12:07:39;0.95;;;0.95;;
63012;SDS011;62113;45.624;11.700;2023-04-24T12:10:09;0.70;;;0.70;;
63012;SDS011;62113;45.624;11.700;2023-04-24T12:12:35;1.00;;;1.00;;
63012;SDS011;62113;45.624;11.700;2023-04-24T12:15:01;1.70;;;1.60;;
63012;SDS011;62113;45.624;11.700;2023-04-24T12:17:33;1.00;;;0.90;;
63012;SDS011;62113;45.624;11.700;2023-04-24T12:20:01;2.95;;;1.38;;
63012;SDS011;62113;45.624;11.700;2023-04-24T12:22:42;1.25;;;1.15;;
63012;SDS011;62113;45.624;11.700;2023-04-24T12:25:12;1.73;;;1.50;;
63012;SDS011;62113;45.624;11.700;2023-04-24T12:27:43;1.33;;;1.23;;
63012;SDS011;62113;45.624;11.700;2023-04-24T12:30:13;2.15;;;1.38;;
63012;SDS011;62113;45.624;11.700;2023-04-24T12:32:41;2.13;;;1.92;;
63012;SDS011;62113;45.624;11.700;2023-04-24T12:35:08;2.33;;;2.05;;
63012;SDS011;62113;45.624;11.700;2023-04-24T12:37:33;2.60;;;2.10;;
63012;SDS011;62113;45.624;11.700;2023-04-24T12:40:02;1.30;;;1.20;;
63012;SDS011;62113;45.624;11.700;2023-04-24T12:42:42;2.45;;;1.40;;
63012;SDS011;62113;45.624;11.700;2023-04-24T12:45:11;4.15;;;1.67;;
63012;SDS011;62113;45.624;11.700;2023-04-24T12:47:38;2.15;;;1.92;;
63012;SDS011;62113;45.624;11.700;2023-04-24T12:50:05;1.58;;;1.58;;
63012;SDS011;62113;45.624;11.700;2023-04-24T12:52:32;1.30;;;1.25;;
63012;SDS011;62113;45.624;11.700;2023-04-24T12:54:58;1.63;;;1.50;;
63012;SDS011;62113;45.624;11.700;2023-04-24T12:57:25;3.35;;;1.20;;
63012;SDS011;62113;45.624;11.700;2023-04-24T12:59:56;1.42;;;1.33;;
63012;SDS011;62113;45.624;11.700;2023-04-24T13:02:27;1.33;;;1.23;;
63012;SDS011;62113;45.624;11.700;2023-04-24T13:04:57;1.77;;;1.45;;
63012;SDS011;62113;45.624;11.700;2023-04-24T13:07:24;1.40;;;1.30;;
63012;SDS011;62113;45.624;11.700;2023-04-24T13:09:50;1.73;;;1.60;;
63012;SDS011;62113;45.624;11.700;2023-04-24T13:14:43;5.30;;;4.15;;
63012;SDS011;62113;45.624;11.700;2023-04-24T13:17:08;1.67;;;1.58;;
63012;SDS011;62113;45.624;11.700;2023-04-24T13:19:35;1.83;;;1.50;;
63012;SDS011;62113;45.624;11.700;2023-04-24T13:22:02;1.90;;;1.58;;
63012;SDS011;62113;45.624;11.700;2023-04-24T13:24:28;1.20;;;1.20;;
63012;SDS011;62113;45.624;11.700;2023-04-24T13:26:54;1.20;;;1.20;;
63012;SDS011;62113;45.624;11.700;2023-04-24T13:29:21;1.20;;;1.10;;
63012;SDS011;62113;45.624;11.700;2023-04-24T13:31:49;1.30;;;1.20;;
63012;SDS011;62113;45.624;11.700;2023-04-24T13:34:16;1.30;;;1.20;;
63012;SDS011;62113;45.624;11.700;2023-04-24T13:36:42;1.92;;;1.40;;
63012;SDS011;62113;45.624;11.700;2023-04-24T13:39:08;1.50;;;1.40;;
63012;SDS011;62113;45.624;11.700;2023-04-24T13:41:34;1.20;;;1.20;;
63012;SDS011;62113;45.624;11.700;2023-04-24T13:44:01;1.58;;;1.20;;
63012;SDS011;62113;45.624;11.700;2023-04-24T13:46:27;1.55;;;1.48;;
63012;SDS011;62113;45.624;11.700;2023-04-24T13:48:53;3.03;;;1.80;;
63012;SDS011;62113;45.624;11.700;2023-04-24T13:51:18;1.17;;;1.17;;
63012;SDS011;62113;45.624;11.700;2023-04-24T13:53:44;3.67;;;2.73;;
63012;SDS011;62113;45.624;11.700;2023-04-24T13:56:10;7.30;;;3.50;;
63012;SDS011;62113;45.624;11.700;2023-04-24T13:58:37;20.58;;;11.18;;
63012;SDS011;62113;45.624;11.700;2023-04-24T14:01:03;1.85;;;1.75;;
63012;SDS011;62113;45.624;11.700;2023-04-24T14:03:29;5.87;;;3.17;;
63012;SDS011;62113;45.624;11.700;2023-04-24T14:05:54;2.93;;;1.90;;
63012;SDS011;62113;45.624;11.700;2023-04-24T14:08:20;2.63;;;1.60;;
63012;SDS011;62113;45.624;11.700;2023-04-24T14:10:46;1.67;;;1.57;;
63012;SDS011;62113;45.624;11.700;2023-04-24T14:13:11;2.27;;;2.07;;
63012;SDS011;62113;45.624;11.700;2023-04-24T14:15:37;3.25;;;1.50;;
63012;SDS011;62113;45.624;11.700;2023-04-24T14:18:03;1.80;;;1.60;;
63012;SDS011;62113;45.624;11.700;2023-04-24T14:20:29;2.33;;;1.60;;
63012;SDS011;62113;45.624;11.700;2023-04-24T14:22:56;2.28;;;1.80;;
63012;SDS011;62113;45.624;11.700;2023-04-24T14:25:25;1.98;;;1.80;;
63012;SDS011;62113;45.624;11.700;2023-04-24T14:27:51;1.65;;;1.55;;
63012;SDS011;62113;45.624;11.700;2023-04-24T14:30:17;1.60;;;1.50;;
63012;SDS011;62113;45.624;11.700;2023-04-24T14:32:43;1.67;;;1.58;;
63012;SDS011;62113;45.624;11.700;2023-04-24T14:35:09;1.93;;;1.80;;
63012;SDS011;62113;45.624;11.700;2023-04-24T14:37:35;1.53;;;1.47;;
63012;SDS011;62113;45.624;11.700;2023-04-24T14:40:01;2.22;;;1.83;;
63012;SDS011;62113;45.624;11.700;2023-04-24T14:42:28;2.35;;;2.00;;
63012;SDS011;62113;45.624;11.700;2023-04-24T14:44:53;1.87;;;1.77;;
63012;SDS011;62113;45.624;11.700;2023-04-24T14:47:19;2.10;;;1.90;;
63012;SDS011;62113;45.624;11.700;2023-04-24T14:52:12;41.63;;;24.95;;
63012;SDS011;62113;45.624;11.700;2023-04-24T14:54:38;3.97;;;3.57;;
63012;SDS011;62113;45.624;11.700;2023-04-24T14:57:03;4.37;;;2.40;;
63012;SDS011;62113;45.624;11.700;2023-04-24T14:59:29;2.00;;;1.90;;
63012;SDS011;62113;45.624;11.700;2023-04-24T15:01:56;2.40;;;1.95;;
63012;SDS011;62113;45.624;11.700;2023-04-24T15:04:25;2.40;;;2.20;;
63012;SDS011;62113;45.624;11.700;2023-04-24T15:06:52;1.92;;;1.83;;
63012;SDS011;62113;45.624;11.700;2023-04-24T15:09:21;2.10;;;1.90;;